Georg Stage — OYKL — position and weather

sailwx.info

Track history (hours):
 
Tides and Currents Weather Stations Pressure Air Temp Water Temp Dewpoint Dewpoint Depression Visibility Wind Speed Wind Dir Waves Ship Positions

Georg Stage (Denmark)

Ship's website: http://www.georgstage.dk

Last reported at 2019-Apr-25 05:27 UTC. Time now 2019-Apr-25 12:17 UTC.
Position N 55°59' W 006°60'.

Length 54 m; draft 4.2 m.

Type: Sailing vessel. MMSI: 219417000.

Date/timePositionNaut miles runAvg speedWind from/ knotsBaromVisibWave heightAir tempDewpointWater temp
2019-Apr-25 05:27N 55°59' W 006°60'6 6.2
2019-Apr-25 04:33N 55°54' W 006°55'0 6.2
2019-Apr-25 04:30N 55°54' W 006°54'3 6.4
2019-Apr-25 04:01N 55°51' W 006°51'3 5.9
2019-Apr-25 03:31N 55°49' W 006°48'3 6.0
2019-Apr-25 03:00N 55°47' W 006°45'3 5.5
2019-Apr-25 02:31N 55°44' W 006°42'2 4.9
2019-Apr-25 02:01N 55°42' W 006°40'2 4.8
2019-Apr-25 01:30N 55°40' W 006°37'2 3.3
2019-Apr-25 01:00N 55°39' W 006°35'1 3.0
2019-Apr-25 00:30N 55°38' W 006°34'2 3.5
2019-Apr-25 00:00N 55°36' W 006°32'2 4.6
2019-Apr-24 23:30N 55°35' W 006°29'3 5.8
2019-Apr-24 23:00N 55°33' W 006°25'3 6.4
2019-Apr-24 22:30N 55°31' W 006°21'3 5.6
2019-Apr-24 22:00N 55°29' W 006°18'2 5.0
2019-Apr-24 21:30N 55°27' W 006°14'3 5.5
2019-Apr-24 21:00N 55°26' W 006°09'3 5.6
2019-Apr-24 20:29N 55°25' W 006°05'43 4.7
2019-Apr-24 11:19N 54°51' W 005°17'1 2.2
2019-Apr-24 11:00N 54°50' W 005°17'2 3.5
2019-Apr-24 10:30N 54°49' W 005°17'2 4.3
2019-Apr-24 10:00N 54°46' W 005°16'2 4.4
2019-Apr-24 09:30N 54°44' W 005°16'3 5.9
2019-Apr-24 09:00N 54°41' W 005°17'3 5.8
2019-Apr-24 08:31N 54°39' W 005°19'3 6.0
2019-Apr-24 08:01N 54°36' W 005°19'3 5.9
2019-Apr-24 07:31N 54°33' W 005°20'3 5.9
2019-Apr-24 07:00N 54°30' W 005°20'3 5.8
2019-Apr-24 06:31N 54°27' W 005°21'3 5.2
2019-Apr-24 06:01N 54°24' W 005°21'2 4.5
2019-Apr-24 05:30N 54°22' W 005°22'2 4.1
2019-Apr-24 05:00N 54°20' W 005°23'2 3.6
2019-Apr-24 04:31N 54°18' W 005°24'2 4.5
2019-Apr-24 04:00N 54°16' W 005°24'4 6.6
2019-Apr-24 03:27N 54°12' W 005°23'2 4.2
2019-Apr-24 02:58N 54°10' W 005°23'1 2.0
2019-Apr-24 02:30N 54°10' W 005°23'2 3.3
2019-Apr-24 02:00N 54°08' W 005°24'1 2.5
2019-Apr-24 01:31N 54°07' W 005°24'1 2.7
2019-Apr-24 00:57N 54°05' W 005°25'22 4.4
2019-Apr-23 20:01N 53°45' W 005°37'2 3.8
2019-Apr-23 19:36N 53°43' W 005°38'4 3.7
2019-Apr-23 18:29N 53°39' W 005°41'16 5.4
2019-Apr-23 15:35N 53°26' W 005°55'1 4.7
2019-Apr-23 15:26N 53°25' W 005°56'2 4.4
2019-Apr-23 15:01N 53°24' W 005°58'3 4.4
2019-Apr-23 14:19N 53°21' W 006°00'1 4.4
2019-Apr-23 14:01N 53°20' W 006°02'2 4.6
2019-Apr-23 13:29N 53°20' W 006°06'3 5.4
2019-Apr-23 13:00N 53°21' W 006°10'2 4.7
2019-Apr-23 12:30N 53°21' W 006°14'0 0.2
2019-Apr-23 11:57N 53°21' W 006°14'0 0.0
2019-Apr-23 11:21N 53°21' W 006°14'0 0.0
2019-Apr-23 10:48N 53°21' W 006°14'0 0.0
2019-Apr-23 10:15N 53°21' W 006°14'0 0.0
2019-Apr-23 09:39N 53°21' W 006°14'0 0.0
2019-Apr-23 09:30N 53°21' W 006°14'0 0.0
2019-Apr-23 08:57N 53°21' W 006°14'0 0.0
2019-Apr-23 08:06N 53°21' W 006°14'0 0.0
2019-Apr-23 07:24N 53°21' W 006°14'0 0.0
2019-Apr-23 06:57N 53°21' W 006°14'0 0.0
2019-Apr-23 06:21N 53°21' W 006°14'0 0.0
2019-Apr-23 06:00N 53°21' W 006°14'0 0.0
2019-Apr-23 05:30N 53°21' W 006°14'0 0.0
2019-Apr-23 05:00N 53°21' W 006°14'0 0.0
2019-Apr-23 04:30N 53°21' W 006°14'0 0.0
2019-Apr-23 04:00N 53°21' W 006°14'0 0.0
2019-Apr-23 03:30N 53°21' W 006°14'0 0.0
2019-Apr-23 02:48N 53°21' W 006°14'0 0.0
2019-Apr-23 02:21N 53°21' W 006°14'0 0.0
2019-Apr-23 01:50N 53°21' W 006°14'0 0.0
2019-Apr-23 01:23N 53°21' W 006°14'0 0.0
2019-Apr-23 00:56N 53°21' W 006°14'0 0.0
2019-Apr-23 00:26N 53°21' W 006°14'0 0.0
2019-Apr-22 23:56N 53°21' W 006°14'0 0.0
2019-Apr-22 23:17N 53°21' W 006°14'0 0.0
2019-Apr-22 22:56N 53°21' W 006°14'0 0.0
2019-Apr-22 22:23N 53°21' W 006°14'0 0.0
2019-Apr-22 21:50N 53°21' W 006°14'0 0.0
2019-Apr-21 14:35N 53°21' W 006°14'0 0.0
2019-Apr-21 14:29N 53°21' W 006°14'0 0.0
2019-Apr-21 13:11N 53°21' W 006°14'0 0.0
2019-Apr-21 12:47N 53°21' W 006°14'0 0.0
2019-Apr-21 12:20N 53°21' W 006°14'0 0.0
2019-Apr-21 11:53N 53°21' W 006°14'0 0.0
2019-Apr-21 11:23N 53°21' W 006°14'0 0.0
2019-Apr-21 10:59N 53°21' W 006°14'0 0.0
2019-Apr-21 10:26N 53°21' W 006°14'0 0.0
2019-Apr-21 09:56N 53°21' W 006°14'0 0.0
2019-Apr-21 09:26N 53°21' W 006°14'0 0.0
2019-Apr-21 08:59N 53°21' W 006°14'0 0.0
2019-Apr-21 08:29N 53°21' W 006°14'0 0.0
2019-Apr-21 07:29N 53°21' W 006°14'0 0.0
2019-Apr-21 06:59N 53°21' W 006°14'0 0.0
2019-Apr-21 06:29N 53°21' W 006°14'0 0.0
2019-Apr-21 05:44N 53°21' W 006°14'0 0.0
2019-Apr-21 04:44N 53°21' W 006°14'0 0.0
2019-Apr-21 04:23N 53°21' W 006°14'0 0.0
2019-Apr-21 03:56N 53°21' W 006°14'0 0.0
2019-Apr-21 03:29N 53°21' W 006°14'0 0.0
2019-Apr-21 02:56N 53°21' W 006°14'0 0.0
2019-Apr-21 02:11N 53°21' W 006°14'0 0.0
2019-Apr-21 01:44N 53°21' W 006°14'0 0.0
2019-Apr-21 01:14N 53°21' W 006°14'0 0.0
2019-Apr-21 00:47N 53°21' W 006°14'0 0.0
2019-Apr-21 00:20N 53°21' W 006°14'0 0.0
2019-Apr-20 23:50N 53°21' W 006°14'0 0.0
2019-Apr-20 23:23N 53°21' W 006°14'0 0.0
2019-Apr-20 22:53N 53°21' W 006°14'0 0.0
2019-Apr-20 22:23N 53°21' W 006°14'0 0.0
2019-Apr-20 21:50N 53°21' W 006°14'0 0.0
2019-Apr-20 21:20N 53°21' W 006°14'0 0.0
2019-Apr-20 20:47N 53°21' W 006°14'0 0.0
2019-Apr-20 20:17N 53°21' W 006°14'0 0.0
2019-Apr-20 19:47N 53°21' W 006°14'0 0.0
2019-Apr-20 18:50N 53°21' W 006°14'0 0.0
2019-Apr-20 18:20N 53°21' W 006°14'0 0.0
2019-Apr-20 17:59N 53°21' W 006°14'0 0.0
2019-Apr-20 17:26N 53°21' W 006°14'0 0.0
2019-Apr-20 16:59N 53°21' W 006°14'0 0.0
2019-Apr-20 16:11N 53°21' W 006°14'0 0.0
2019-Apr-20 15:44N 53°21' W 006°14'0 0.0
2019-Apr-20 14:17N 53°21' W 006°14'0 0.0
2019-Apr-20 13:50N 53°21' W 006°14'0 0.0
2019-Apr-20 13:29N 53°21' W 006°14'0 0.0
2019-Apr-20 12:56N 53°21' W 006°14'0 0.0
2019-Apr-20 12:29N 53°21' W 006°14'0 0.0
2019-Apr-20 11:47N 53°21' W 006°14'0 0.0
2019-Apr-20 11:11N 53°21' W 006°14'0 0.0
2019-Apr-20 10:50N 53°21' W 006°14'0 0.0
2019-Apr-20 10:23N 53°21' W 006°14'0 0.0
2019-Apr-20 10:00N 53°21' W 006°14'1 1.9
2019-Apr-20 09:29N 53°21' W 006°13'3 6.4
2019-Apr-20 09:00N 53°21' W 006°07'2 3.7
2019-Apr-20 08:23N 53°19' W 006°05'0 0.1
2019-Apr-20 07:56N 53°19' W 006°05'0 0.0
2019-Apr-20 07:29N 53°19' W 006°05'0 0.0
2019-Apr-20 06:44N 53°19' W 006°05'0 0.0
2019-Apr-20 06:17N 53°19' W 006°05'0 0.0
2019-Apr-20 05:44N 53°19' W 006°05'0 0.0
2019-Apr-20 05:23N 53°19' W 006°05'0 0.0
2019-Apr-20 04:47N 53°19' W 006°05'0 0.0
2019-Apr-20 04:29N 53°19' W 006°05'0 0.0
2019-Apr-20 03:59N 53°19' W 006°05'0 0.0
2019-Apr-20 03:11N 53°19' W 006°05'0 0.0
2019-Apr-20 02:59N 53°19' W 006°05'0 0.0
2019-Apr-20 00:50N 53°19' W 006°05'0 0.0
2019-Apr-20 00:26N 53°19' W 006°05'0 0.0
2019-Apr-19 23:53N 53°19' W 006°05'0 0.0
2019-Apr-19 23:23N 53°19' W 006°05'0 0.0
2019-Apr-19 22:47N 53°19' W 006°06'0 0.0
2019-Apr-19 22:17N 53°19' W 006°06'0 0.0
2019-Apr-19 21:29N 53°19' W 006°05'0 0.0
2019-Apr-19 20:38N 53°19' W 006°05'0 0.0
2019-Apr-19 20:08N 53°19' W 006°05'0 0.0
2019-Apr-19 19:35N 53°19' W 006°05'0 0.0
2019-Apr-19 19:26N 53°19' W 006°05'0 0.0
2019-Apr-19 18:59N 53°19' W 006°05'0 0.0
2019-Apr-19 18:29N 53°19' W 006°05'0 0.0
2019-Apr-19 17:56N 53°19' W 006°06'0 0.0
2019-Apr-19 17:05N 53°19' W 006°06'0 0.0
2019-Apr-19 16:59N 53°19' W 006°06'0 0.0
2019-Apr-19 16:29N 53°19' W 006°06'0 0.0
2019-Apr-19 15:59N 53°19' W 006°06'0 0.0
2019-Apr-19 15:08N 53°19' W 006°05'0 0.0
2019-Apr-19 14:47N 53°19' W 006°05'0 0.0
2019-Apr-19 14:26N 53°19' W 006°05'0 0.0
2019-Apr-19 13:59N 53°19' W 006°05'0 0.0
2019-Apr-19 13:26N 53°19' W 006°05'0 0.0
2019-Apr-19 12:59N 53°19' W 006°05'0 0.0
2019-Apr-19 12:14N 53°19' W 006°05'0 0.0
2019-Apr-19 11:47N 53°19' W 006°05'0 0.0
2019-Apr-19 11:20N 53°19' W 006°05'0 0.1
2019-Apr-19 10:53N 53°19' W 006°06'0 0.0
2019-Apr-19 10:26N 53°19' W 006°06'0 0.0
2019-Apr-19 09:50N 53°19' W 006°06'0 0.0
2019-Apr-19 09:29N 53°19' W 006°06'0 0.0
2019-Apr-19 08:26N 53°19' W 006°06'0 0.0
2019-Apr-19 07:38N 53°19' W 006°05'0 0.0
2019-Apr-19 07:14N 53°19' W 006°05'0 0.0
2019-Apr-19 06:47N 53°19' W 006°05'0 0.0
2019-Apr-19 06:20N 53°19' W 006°05'0 0.0
2019-Apr-19 05:53N 53°19' W 006°06'0 0.0
2019-Apr-19 04:35N 53°19' W 006°06'0 0.0
2019-Apr-19 04:26N 53°19' W 006°06'0 0.0
2019-Apr-19 03:44N 53°19' W 006°06'0 0.0
2019-Apr-19 03:17N 53°19' W 006°05'0 0.0
2019-Apr-19 02:02N 53°19' W 006°05'0 0.0
2019-Apr-19 01:53N 53°19' W 006°05'0 0.0
2019-Apr-19 01:08N 53°19' W 006°05'0 0.0
2019-Apr-19 00:35N 53°19' W 006°05'0 0.0
2019-Apr-19 00:14N 53°19' W 006°05'0 0.0
2019-Apr-18 23:50N 53°19' W 006°05'0 0.0
2019-Apr-18 23:23N 53°19' W 006°05'0 0.0
2019-Apr-18 22:53N 53°19' W 006°05'0 0.0
2019-Apr-18 22:26N 53°19' W 006°06'0 0.0
2019-Apr-18 21:56N 53°19' W 006°06'0 0.0
2019-Apr-18 21:29N 53°19' W 006°05'0 0.0
2019-Apr-18 20:14N 53°19' W 006°05'0 0.0
2019-Apr-18 19:50N 53°19' W 006°06'0 0.0
2019-Apr-18 19:23N 53°19' W 006°05'0 0.0
2019-Apr-18 18:50N 53°19' W 006°05'0 0.0
2019-Apr-18 18:10N 53°19' W 006°06'0 0.0
2019-Apr-18 17:46N 53°19' W 006°05'0 0.0
2019-Apr-18 17:16N 53°19' W 006°06'0 0.0
2019-Apr-18 16:22N 53°19' W 006°06'0 0.0
2019-Apr-18 15:59N 53°19' W 006°05'2 3.5
2019-Apr-18 15:29N 53°20' W 006°03'  
Track history (hours):
 
Tides and Currents Weather Stations Pressure Air Temp Water Temp Dewpoint Dewpoint Depression Visibility Wind Speed Wind Dir Waves Ship Positions

Georg Stage (Denmark)

Ship's website: http://www.georgstage.dk

Last reported at 2019-Apr-25 05:27 UTC. Time now 2019-Apr-25 12:17 UTC.
Position N 55°59' W 006°60'.

Length 54 m; draft 4.2 m.

Type: Sailing vessel. MMSI: 219417000.

Date/timePositionNaut miles runAvg speedWind from/ knotsBaromVisibWave heightAir tempDewpointWater temp
2019-Apr-25 05:27N 55°59' W 006°60'6 6.2
2019-Apr-25 04:33N 55°54' W 006°55'0 6.2
2019-Apr-25 04:30N 55°54' W 006°54'3 6.4
2019-Apr-25 04:01N 55°51' W 006°51'3 5.9
2019-Apr-25 03:31N 55°49' W 006°48'3 6.0
2019-Apr-25 03:00N 55°47' W 006°45'3 5.5
2019-Apr-25 02:31N 55°44' W 006°42'2 4.9
2019-Apr-25 02:01N 55°42' W 006°40'2 4.8
2019-Apr-25 01:30N 55°40' W 006°37'2 3.3
2019-Apr-25 01:00N 55°39' W 006°35'1 3.0
2019-Apr-25 00:30N 55°38' W 006°34'2 3.5
2019-Apr-25 00:00N 55°36' W 006°32'2 4.6
2019-Apr-24 23:30N 55°35' W 006°29'3 5.8
2019-Apr-24 23:00N 55°33' W 006°25'3 6.4
2019-Apr-24 22:30N 55°31' W 006°21'3 5.6
2019-Apr-24 22:00N 55°29' W 006°18'2 5.0
2019-Apr-24 21:30N 55°27' W 006°14'3 5.5
2019-Apr-24 21:00N 55°26' W 006°09'3 5.6
2019-Apr-24 20:29N 55°25' W 006°05'43 4.7
2019-Apr-24 11:19N 54°51' W 005°17'1 2.2
2019-Apr-24 11:00N 54°50' W 005°17'2 3.5
2019-Apr-24 10:30N 54°49' W 005°17'2 4.3
2019-Apr-24 10:00N 54°46' W 005°16'2 4.4
2019-Apr-24 09:30N 54°44' W 005°16'3 5.9
2019-Apr-24 09:00N 54°41' W 005°17'3 5.8
2019-Apr-24 08:31N 54°39' W 005°19'3 6.0
2019-Apr-24 08:01N 54°36' W 005°19'3 5.9
2019-Apr-24 07:31N 54°33' W 005°20'3 5.9
2019-Apr-24 07:00N 54°30' W 005°20'3 5.8
2019-Apr-24 06:31N 54°27' W 005°21'3 5.2
2019-Apr-24 06:01N 54°24' W 005°21'2 4.5
2019-Apr-24 05:30N 54°22' W 005°22'2 4.1
2019-Apr-24 05:00N 54°20' W 005°23'2 3.6
2019-Apr-24 04:31N 54°18' W 005°24'2 4.5
2019-Apr-24 04:00N 54°16' W 005°24'4 6.6
2019-Apr-24 03:27N 54°12' W 005°23'2 4.2
2019-Apr-24 02:58N 54°10' W 005°23'1 2.0
2019-Apr-24 02:30N 54°10' W 005°23'2 3.3
2019-Apr-24 02:00N 54°08' W 005°24'1 2.5
2019-Apr-24 01:31N 54°07' W 005°24'1 2.7
2019-Apr-24 00:57N 54°05' W 005°25'22 4.4
2019-Apr-23 20:01N 53°45' W 005°37'2 3.8
2019-Apr-23 19:36N 53°43' W 005°38'4 3.7
2019-Apr-23 18:29N 53°39' W 005°41'16 5.4
2019-Apr-23 15:35N 53°26' W 005°55'1 4.7
2019-Apr-23 15:26N 53°25' W 005°56'2 4.4
2019-Apr-23 15:01N 53°24' W 005°58'3 4.4
2019-Apr-23 14:19N 53°21' W 006°00'1 4.4
2019-Apr-23 14:01N 53°20' W 006°02'2 4.6
2019-Apr-23 13:29N 53°20' W 006°06'3 5.4
2019-Apr-23 13:00N 53°21' W 006°10'2 4.7
2019-Apr-23 12:30N 53°21' W 006°14'0 0.2
2019-Apr-23 11:57N 53°21' W 006°14'0 0.0
2019-Apr-23 11:21N 53°21' W 006°14'0 0.0
2019-Apr-23 10:48N 53°21' W 006°14'0 0.0
2019-Apr-23 10:15N 53°21' W 006°14'0 0.0
2019-Apr-23 09:39N 53°21' W 006°14'0 0.0
2019-Apr-23 09:30N 53°21' W 006°14'0 0.0
2019-Apr-23 08:57N 53°21' W 006°14'0 0.0
2019-Apr-23 08:06N 53°21' W 006°14'0 0.0
2019-Apr-23 07:24N 53°21' W 006°14'0 0.0
2019-Apr-23 06:57N 53°21' W 006°14'0 0.0
2019-Apr-23 06:21N 53°21' W 006°14'0 0.0
2019-Apr-23 06:00N 53°21' W 006°14'0 0.0
2019-Apr-23 05:30N 53°21' W 006°14'0 0.0
2019-Apr-23 05:00N 53°21' W 006°14'0 0.0
2019-Apr-23 04:30N 53°21' W 006°14'0 0.0
2019-Apr-23 04:00N 53°21' W 006°14'0 0.0
2019-Apr-23 03:30N 53°21' W 006°14'0 0.0
2019-Apr-23 02:48N 53°21' W 006°14'0 0.0
2019-Apr-23 02:21N 53°21' W 006°14'0 0.0
2019-Apr-23 01:50N 53°21' W 006°14'0 0.0
2019-Apr-23 01:23N 53°21' W 006°14'0 0.0
2019-Apr-23 00:56N 53°21' W 006°14'0 0.0
2019-Apr-23 00:26N 53°21' W 006°14'0 0.0
2019-Apr-22 23:56N 53°21' W 006°14'0 0.0
2019-Apr-22 23:17N 53°21' W 006°14'0 0.0
2019-Apr-22 22:56N 53°21' W 006°14'0 0.0
2019-Apr-22 22:23N 53°21' W 006°14'0 0.0
2019-Apr-22 21:50N 53°21' W 006°14'0 0.0
2019-Apr-21 14:35N 53°21' W 006°14'0 0.0
2019-Apr-21 14:29N 53°21' W 006°14'0 0.0
2019-Apr-21 13:11N 53°21' W 006°14'0 0.0
2019-Apr-21 12:47N 53°21' W 006°14'0 0.0
2019-Apr-21 12:20N 53°21' W 006°14'0 0.0
2019-Apr-21 11:53N 53°21' W 006°14'0 0.0
2019-Apr-21 11:23N 53°21' W 006°14'0 0.0
2019-Apr-21 10:59N 53°21' W 006°14'0 0.0
2019-Apr-21 10:26N 53°21' W 006°14'0 0.0
2019-Apr-21 09:56N 53°21' W 006°14'0 0.0
2019-Apr-21 09:26N 53°21' W 006°14'0 0.0
2019-Apr-21 08:59N 53°21' W 006°14'0 0.0
2019-Apr-21 08:29N 53°21' W 006°14'0 0.0
2019-Apr-21 07:29N 53°21' W 006°14'0 0.0
2019-Apr-21 06:59N 53°21' W 006°14'0 0.0
2019-Apr-21 06:29N 53°21' W 006°14'0 0.0
2019-Apr-21 05:44N 53°21' W 006°14'0 0.0
2019-Apr-21 04:44N 53°21' W 006°14'0 0.0
2019-Apr-21 04:23N 53°21' W 006°14'0 0.0
2019-Apr-21 03:56N 53°21' W 006°14'0 0.0
2019-Apr-21 03:29N 53°21' W 006°14'0 0.0
2019-Apr-21 02:56N 53°21' W 006°14'0 0.0
2019-Apr-21 02:11N 53°21' W 006°14'0 0.0
2019-Apr-21 01:44N 53°21' W 006°14'0 0.0
2019-Apr-21 01:14N 53°21' W 006°14'0 0.0
2019-Apr-21 00:47N 53°21' W 006°14'0 0.0
2019-Apr-21 00:20N 53°21' W 006°14'0 0.0
2019-Apr-20 23:50N 53°21' W 006°14'0 0.0
2019-Apr-20 23:23N 53°21' W 006°14'0 0.0
2019-Apr-20 22:53N 53°21' W 006°14'0 0.0
2019-Apr-20 22:23N 53°21' W 006°14'0 0.0
2019-Apr-20 21:50N 53°21' W 006°14'0 0.0
2019-Apr-20 21:20N 53°21' W 006°14'0 0.0
2019-Apr-20 20:47N 53°21' W 006°14'0 0.0
2019-Apr-20 20:17N 53°21' W 006°14'0 0.0
2019-Apr-20 19:47N 53°21' W 006°14'0 0.0
2019-Apr-20 18:50N 53°21' W 006°14'0 0.0
2019-Apr-20 18:20N 53°21' W 006°14'0 0.0
2019-Apr-20 17:59N 53°21' W 006°14'0 0.0
2019-Apr-20 17:26N 53°21' W 006°14'0 0.0
2019-Apr-20 16:59N 53°21' W 006°14'0 0.0
2019-Apr-20 16:11N 53°21' W 006°14'0 0.0
2019-Apr-20 15:44N 53°21' W 006°14'0 0.0
2019-Apr-20 14:17N 53°21' W 006°14'0 0.0
2019-Apr-20 13:50N 53°21' W 006°14'0 0.0
2019-Apr-20 13:29N 53°21' W 006°14'0 0.0
2019-Apr-20 12:56N 53°21' W 006°14'0 0.0
2019-Apr-20 12:29N 53°21' W 006°14'0 0.0
2019-Apr-20 11:47N 53°21' W 006°14'0 0.0
2019-Apr-20 11:11N 53°21' W 006°14'0 0.0
2019-Apr-20 10:50N 53°21' W 006°14'0 0.0
2019-Apr-20 10:23N 53°21' W 006°14'0 0.0
2019-Apr-20 10:00N 53°21' W 006°14'1 1.9
2019-Apr-20 09:29N 53°21' W 006°13'3 6.4
2019-Apr-20 09:00N 53°21' W 006°07'2 3.7
2019-Apr-20 08:23N 53°19' W 006°05'0 0.1
2019-Apr-20 07:56N 53°19' W 006°05'0 0.0
2019-Apr-20 07:29N 53°19' W 006°05'0 0.0
2019-Apr-20 06:44N 53°19' W 006°05'0 0.0
2019-Apr-20 06:17N 53°19' W 006°05'0 0.0
2019-Apr-20 05:44N 53°19' W 006°05'0 0.0
2019-Apr-20 05:23N 53°19' W 006°05'0 0.0
2019-Apr-20 04:47N 53°19' W 006°05'0 0.0
2019-Apr-20 04:29N 53°19' W 006°05'0 0.0
2019-Apr-20 03:59N 53°19' W 006°05'0 0.0
2019-Apr-20 03:11N 53°19' W 006°05'0 0.0
2019-Apr-20 02:59N 53°19' W 006°05'0 0.0
2019-Apr-20 00:50N 53°19' W 006°05'0 0.0
2019-Apr-20 00:26N 53°19' W 006°05'0 0.0
2019-Apr-19 23:53N 53°19' W 006°05'0 0.0
2019-Apr-19 23:23N 53°19' W 006°05'0 0.0
2019-Apr-19 22:47N 53°19' W 006°06'0 0.0
2019-Apr-19 22:17N 53°19' W 006°06'0 0.0
2019-Apr-19 21:29N 53°19' W 006°05'0 0.0
2019-Apr-19 20:38N 53°19' W 006°05'0 0.0
2019-Apr-19 20:08N 53°19' W 006°05'0 0.0
2019-Apr-19 19:35N 53°19' W 006°05'0 0.0
2019-Apr-19 19:26N 53°19' W 006°05'0 0.0
2019-Apr-19 18:59N 53°19' W 006°05'0 0.0
2019-Apr-19 18:29N 53°19' W 006°05'0 0.0
2019-Apr-19 17:56N 53°19' W 006°06'0 0.0
2019-Apr-19 17:05N 53°19' W 006°06'0 0.0
2019-Apr-19 16:59N 53°19' W 006°06'0 0.0
2019-Apr-19 16:29N 53°19' W 006°06'0 0.0
2019-Apr-19 15:59N 53°19' W 006°06'0 0.0
2019-Apr-19 15:08N 53°19' W 006°05'0 0.0
2019-Apr-19 14:47N 53°19' W 006°05'0 0.0
2019-Apr-19 14:26N 53°19' W 006°05'0 0.0
2019-Apr-19 13:59N 53°19' W 006°05'0 0.0
2019-Apr-19 13:26N 53°19' W 006°05'0 0.0
2019-Apr-19 12:59N 53°19' W 006°05'0 0.0
2019-Apr-19 12:14N 53°19' W 006°05'0 0.0
2019-Apr-19 11:47N 53°19' W 006°05'0 0.0
2019-Apr-19 11:20N 53°19' W 006°05'0 0.1
2019-Apr-19 10:53N 53°19' W 006°06'0 0.0
2019-Apr-19 10:26N 53°19' W 006°06'0 0.0
2019-Apr-19 09:50N 53°19' W 006°06'0 0.0
2019-Apr-19 09:29N 53°19' W 006°06'0 0.0
2019-Apr-19 08:26N 53°19' W 006°06'0 0.0
2019-Apr-19 07:38N 53°19' W 006°05'0 0.0
2019-Apr-19 07:14N 53°19' W 006°05'0 0.0
2019-Apr-19 06:47N 53°19' W 006°05'0 0.0
2019-Apr-19 06:20N 53°19' W 006°05'0 0.0
2019-Apr-19 05:53N 53°19' W 006°06'0 0.0
2019-Apr-19 04:35N 53°19' W 006°06'0 0.0
2019-Apr-19 04:26N 53°19' W 006°06'0 0.0
2019-Apr-19 03:44N 53°19' W 006°06'0 0.0
2019-Apr-19 03:17N 53°19' W 006°05'0 0.0
2019-Apr-19 02:02N 53°19' W 006°05'0 0.0
2019-Apr-19 01:53N 53°19' W 006°05'0 0.0
2019-Apr-19 01:08N 53°19' W 006°05'0 0.0
2019-Apr-19 00:35N 53°19' W 006°05'0 0.0
2019-Apr-19 00:14N 53°19' W 006°05'0 0.0
2019-Apr-18 23:50N 53°19' W 006°05'0 0.0
2019-Apr-18 23:23N 53°19' W 006°05'0 0.0
2019-Apr-18 22:53N 53°19' W 006°05'0 0.0
2019-Apr-18 22:26N 53°19' W 006°06'0 0.0
2019-Apr-18 21:56N 53°19' W 006°06'0 0.0
2019-Apr-18 21:29N 53°19' W 006°05'0 0.0
2019-Apr-18 20:14N 53°19' W 006°05'0 0.0
2019-Apr-18 19:50N 53°19' W 006°06'0 0.0
2019-Apr-18 19:23N 53°19' W 006°05'0 0.0
2019-Apr-18 18:50N 53°19' W 006°05'0 0.0
2019-Apr-18 18:10N 53°19' W 006°06'0 0.0
2019-Apr-18 17:46N 53°19' W 006°05'0 0.0
2019-Apr-18 17:16N 53°19' W 006°06'0 0.0
2019-Apr-18 16:22N 53°19' W 006°06'0 0.0
2019-Apr-18 15:59N 53°19' W 006°05'2 3.5
2019-Apr-18 15:29N 53°20' W 006°03'  

Dump ship's entire track history